Terminal Aerodrome Forecast
Issued by NWS

Home | Current Version | Previous Version | Graphics & Text | Print | Product List | Glossary On
Versions: 1 2 3 4 5 6 7 8 9 10 11 12 13 14 15 16 17 18 19 20 21 22 23 24 25 26 27 28 29 30 31 32 33 34
000
FTUS43 KLOT 291700
TAFORD
TAF
KORD 291738Z 2918/3024 33019G30KT P6SM OVC019
     FM300000 32017G25KT P6SM OVC020
     FM300900 33012G18KT P6SM BKN020
     FM301500 33008KT P6SM SCT020 SCT150
     FM302100 27006KT P6SM SCT025 BKN100=

USA.gov is the U.S. government's official web portal to all federal, state and local government web resources and services.